createdAt,value
2018-07-10T00:02:11.298Z,64.91
2018-07-10T00:04:51.672Z,64.99
2018-07-10T00:07:47.989Z,64.86
2018-07-10T00:10:58.091Z,65.11
2018-07-10T00:13:27.180Z,64.47
2018-07-10T00:15:56.222Z,64.83
2018-07-10T00:18:25.325Z,64.73
2018-07-10T00:20:55.248Z,64.60
2018-07-10T00:23:24.366Z,64.63
2018-07-10T00:25:53.461Z,64.91
2018-07-10T00:28:22.573Z,65.30
2018-07-10T00:30:51.663Z,65.73
2018-07-10T00:33:20.923Z,65.59
2018-07-10T00:35:50.016Z,66.00
2018-07-10T00:38:30.456Z,66.03
2018-07-10T00:40:59.553Z,66.60
2018-07-10T00:43:28.613Z,66.62
2018-07-10T00:45:57.743Z,65.99
2018-07-10T00:48:27.810Z,65.67
2018-07-10T00:50:58.445Z,65.49
2018-07-10T00:53:27.546Z,65.19
2018-07-10T00:55:56.787Z,64.72
2018-07-10T00:58:25.925Z,64.53
2018-07-10T01:00:54.988Z,65.01
2018-07-10T01:03:24.053Z,64.29
2018-07-10T01:05:53.183Z,63.22
2018-07-10T01:08:22.253Z,62.89
2018-07-10T01:10:57.650Z,62.97
2018-07-10T01:13:26.743Z,63.57
2018-07-10T01:15:55.868Z,63.56
2018-07-10T01:18:26.954Z,64.31
2018-07-10T01:20:56.282Z,64.76
2018-07-10T01:23:29.354Z,65.66
2018-07-10T01:26:00.122Z,65.90
2018-07-10T01:28:30.006Z,66.95
2018-07-10T01:30:59.109Z,67.96
2018-07-10T01:33:28.255Z,68.47
2018-07-10T01:35:57.580Z,70.79
2018-07-10T01:38:26.721Z,73.69
2018-07-10T01:40:55.847Z,74.68
2018-07-10T01:43:25.000Z,75.12
2018-07-10T01:45:54.119Z,76.01
2018-07-10T01:48:23.200Z,75.53
2018-07-10T01:50:53.026Z,76.35
2018-07-10T01:53:22.370Z,75.96
2018-07-10T01:55:51.525Z,75.41
2018-07-10T01:58:21.298Z,75.33
2018-07-10T02:00:50.503Z,75.37
2018-07-10T02:03:19.550Z,76.17
2018-07-10T02:05:48.673Z,76.04
2018-07-10T02:08:17.800Z,75.23
2018-07-10T02:10:46.900Z,75.50
2018-07-10T02:13:16.040Z,75.04
2018-07-10T02:15:45.241Z,74.15
2018-07-10T02:18:14.352Z,73.93
2018-07-10T02:21:00.779Z,73.45
2018-07-10T02:23:36.221Z,73.38
2018-07-10T02:26:07.347Z,72.83
2018-07-10T02:28:36.464Z,73.39
2018-07-10T02:31:05.563Z,72.56
2018-07-10T02:33:34.636Z,72.62
2018-07-10T02:36:03.947Z,72.03
2018-07-10T02:38:34.161Z,72.38
2018-07-10T02:41:03.301Z,72.32
2018-07-10T02:43:32.438Z,71.38
2018-07-10T02:46:02.103Z,71.11
2018-07-10T02:48:32.467Z,71.85
2018-07-10T02:51:03.853Z,71.56
2018-07-10T02:53:33.624Z,71.07
2018-07-10T02:56:02.754Z,71.46
2018-07-10T02:58:34.412Z,70.45
2018-07-10T03:01:04.447Z,70.10
2018-07-10T03:03:36.154Z,69.83
2018-07-10T03:06:05.928Z,69.27
2018-07-10T03:08:35.356Z,69.85
2018-07-10T03:11:04.610Z,69.56
2018-07-10T03:13:33.873Z,69.25
2018-07-10T03:16:03.026Z,69.45
2018-07-10T03:18:32.574Z,69.74
2018-07-10T03:21:01.684Z,69.63
2018-07-10T03:23:30.766Z,69.48
2018-07-10T03:25:59.860Z,69.17
2018-07-10T03:28:28.970Z,69.20
2018-07-10T03:31:13.240Z,70.08
2018-07-10T03:33:45.450Z,70.29
2018-07-10T03:36:14.555Z,70.29
2018-07-10T03:38:43.648Z,69.93
2018-07-10T03:41:13.108Z,70.09
2018-07-10T03:43:43.192Z,70.73
2018-07-10T03:46:12.250Z,70.51
2018-07-10T03:48:41.419Z,70.57
2018-07-10T03:51:11.618Z,70.56
2018-07-10T03:53:41.289Z,70.68
2018-07-10T03:56:11.097Z,70.97
2018-07-10T03:58:40.344Z,70.97
2018-07-10T04:01:09.447Z,70.70
2018-07-10T04:03:38.550Z,70.59
2018-07-10T04:06:08.054Z,70.41
2018-07-10T04:08:38.463Z,70.80
2018-07-10T04:11:07.611Z,70.43
2018-07-10T04:13:38.142Z,70.26
2018-07-10T04:16:07.296Z,69.67
2018-07-10T04:18:36.570Z,69.43
2018-07-10T04:21:19.938Z,69.24
2018-07-10T04:23:54.834Z,68.34
2018-07-10T04:26:24.153Z,67.59
2018-07-10T04:29:04.480Z,66.62
2018-07-10T04:31:46.412Z,66.73
2018-07-10T04:34:15.880Z,66.34
2018-07-10T04:36:44.987Z,66.45
2018-07-10T04:39:20.720Z,66.27
2018-07-10T04:41:57.769Z,65.28
2018-07-10T04:44:32.144Z,64.82
2018-07-10T04:47:16.498Z,64.44
2018-07-10T04:49:52.212Z,64.43
2018-07-10T04:52:29.655Z,64.22
2018-07-10T04:55:15.248Z,64.29
2018-07-10T04:57:57.646Z,64.22
2018-07-10T05:00:28.095Z,63.71
2018-07-10T05:02:58.967Z,63.48
2018-07-10T05:05:30.780Z,63.15
2018-07-10T05:08:01.639Z,63.26
2018-07-10T05:10:31.613Z,63.63
2018-07-10T05:13:02.717Z,64.15
2018-07-10T05:15:31.908Z,64.11
2018-07-10T05:18:05.984Z,64.55
2018-07-10T05:20:35.789Z,65.07
2018-07-10T05:23:04.993Z,65.57
2018-07-10T05:25:35.990Z,66.38
2018-07-10T05:28:05.165Z,66.41
2018-07-10T05:30:36.068Z,67.12
2018-07-10T05:33:05.558Z,68.50
2018-07-10T05:35:34.696Z,69.31
2018-07-10T05:38:06.493Z,69.42
2018-07-10T05:40:35.832Z,69.56
2018-07-10T05:43:12.000Z,69.61
2018-07-10T05:45:41.428Z,69.98
2018-07-10T05:48:11.056Z,70.05
2018-07-10T05:50:40.399Z,69.54
2018-07-10T05:53:11.313Z,68.98
2018-07-10T05:55:49.134Z,67.96
2018-07-10T05:58:18.240Z,67.11
2018-07-10T06:00:47.325Z,66.05
2018-07-10T06:03:16.409Z,66.69
2018-07-10T06:05:45.549Z,65.99
2018-07-10T06:08:14.925Z,66.13
2018-07-10T06:10:43.995Z,65.50
2018-07-10T06:13:13.118Z,65.61
2018-07-10T06:15:42.245Z,65.26
2018-07-10T06:18:11.336Z,65.63
2018-07-10T06:20:41.872Z,64.64
2018-07-10T06:23:11.050Z,63.99
2018-07-10T06:25:40.762Z,64.50
2018-07-10T06:28:13.896Z,64.08
2018-07-10T06:30:43.162Z,64.25
2018-07-10T06:33:23.900Z,64.49
2018-07-10T06:36:31.917Z,63.61
2018-07-10T06:39:07.188Z,63.49
2018-07-10T06:41:40.268Z,62.58
2018-07-10T06:44:09.410Z,62.50
2018-07-10T06:46:40.635Z,62.38
2018-07-10T06:49:22.013Z,62.23
2018-07-10T06:52:13.714Z,62.17
2018-07-10T06:54:57.516Z,62.14
2018-07-10T06:57:33.188Z,60.97
2018-07-10T07:00:03.337Z,60.42
2018-07-10T07:02:33.771Z,59.97
2018-07-10T07:05:02.869Z,59.96
2018-07-10T07:07:33.623Z,60.05
2018-07-10T07:10:04.469Z,59.76
2018-07-10T07:12:34.359Z,59.43
2018-07-10T07:15:05.123Z,59.56
2018-07-10T07:17:34.878Z,59.36
2018-07-10T07:20:04.057Z,59.24
2018-07-10T07:22:34.111Z,59.71
2018-07-10T07:25:03.966Z,60.33
2018-07-10T07:27:33.430Z,60.40
2018-07-10T07:30:02.691Z,60.08
2018-07-10T07:32:32.269Z,59.08
2018-07-10T07:35:01.349Z,59.11
2018-07-10T07:37:31.273Z,58.32
2018-07-10T07:40:00.393Z,58.15
2018-07-10T07:42:29.479Z,58.17
2018-07-10T07:44:58.710Z,57.93
2018-07-10T07:47:29.606Z,58.93
2018-07-10T07:49:58.774Z,58.79
2018-07-10T07:52:30.395Z,59.03
2018-07-10T07:55:00.998Z,58.69
2018-07-10T07:57:30.102Z,58.25
2018-07-10T07:59:59.255Z,57.83
2018-07-10T08:02:28.415Z,57.69
2018-07-10T08:04:57.905Z,57.81
2018-07-10T08:07:28.194Z,57.85
2018-07-10T08:09:58.212Z,58.19
2018-07-10T08:12:28.587Z,57.66
2018-07-10T08:14:59.934Z,57.63
2018-07-10T08:17:29.628Z,56.38
2018-07-10T08:19:59.718Z,56.63
2018-07-10T08:22:29.099Z,56.28
2018-07-10T08:24:58.273Z,56.06
2018-07-10T08:27:28.095Z,56.63
2018-07-10T08:29:57.699Z,56.13
2018-07-10T08:32:28.365Z,56.19
2018-07-10T08:34:57.627Z,55.78
2018-07-10T08:37:27.016Z,55.15
2018-07-10T08:39:56.186Z,54.53
2018-07-10T08:42:25.432Z,54.61
2018-07-10T08:44:54.793Z,54.87
2018-07-10T08:47:23.918Z,55.04
2018-07-10T08:49:53.041Z,55.39
2018-07-10T08:52:22.158Z,55.54
2018-07-10T08:54:51.269Z,55.00
2018-07-10T08:57:21.124Z,55.36
2018-07-10T08:59:50.377Z,55.75
2018-07-10T09:02:19.476Z,56.10
2018-07-10T09:04:48.570Z,56.46
2018-07-10T09:07:17.777Z,56.91
2018-07-10T09:09:46.879Z,56.61
2018-07-10T09:12:16.006Z,57.05
2018-07-10T09:14:45.176Z,56.92
2018-07-10T09:17:14.586Z,57.89
2018-07-10T09:19:43.711Z,58.64
2018-07-10T09:22:13.624Z,59.06
2018-07-10T09:24:46.839Z,60.18
2018-07-10T09:27:17.640Z,60.36
2018-07-10T09:29:47.321Z,60.49
2018-07-10T09:32:20.627Z,61.39
2018-07-10T09:34:50.174Z,61.60
2018-07-10T09:37:24.540Z,60.74
2018-07-10T09:40:26.921Z,61.19
2018-07-10T09:42:58.760Z,61.31
2018-07-10T09:45:42.722Z,61.77
2018-07-10T09:48:11.833Z,62.72
2018-07-10T09:50:41.126Z,62.15
2018-07-10T09:53:10.292Z,61.65
2018-07-10T09:55:39.372Z,61.24
2018-07-10T09:58:08.488Z,61.23
2018-07-10T10:00:45.808Z,60.39
2018-07-10T10:03:15.023Z,59.77
2018-07-10T10:05:45.500Z,60.26
2018-07-10T10:08:14.579Z,59.91
2018-07-10T10:10:43.776Z,60.01
2018-07-10T10:13:12.905Z,59.71
2018-07-10T10:15:42.108Z,59.86
2018-07-10T10:18:11.272Z,59.06
2018-07-10T10:20:41.465Z,58.81
2018-07-10T10:23:12.409Z,58.63
2018-07-10T10:25:49.529Z,58.00
2018-07-10T10:28:21.440Z,58.37
2018-07-10T10:30:50.563Z,59.31
2018-07-10T10:33:19.636Z,59.64
2018-07-10T10:35:49.061Z,60.41
2018-07-10T10:38:18.851Z,60.48
2018-07-10T10:40:49.800Z,61.46
2018-07-10T10:43:18.911Z,60.67
2018-07-10T10:45:48.314Z,60.03
2018-07-10T10:48:18.272Z,59.56
2018-07-10T10:50:50.382Z,59.49
2018-07-10T10:53:20.059Z,59.87
2018-07-10T10:55:49.382Z,60.18
2018-07-10T10:58:20.072Z,59.93
2018-07-10T11:00:49.331Z,59.93
2018-07-10T11:03:18.424Z,60.12
2018-07-10T11:05:47.824Z,59.98
2018-07-10T11:08:16.978Z,60.11
2018-07-10T11:10:47.139Z,60.14
2018-07-10T11:13:17.312Z,60.17
2018-07-10T11:15:49.419Z,60.04
2018-07-10T11:18:37.334Z,59.89
2018-07-10T11:21:14.656Z,59.67
2018-07-10T11:23:49.721Z,59.06
2018-07-10T11:26:50.576Z,58.91
2018-07-10T11:29:19.726Z,59.18
2018-07-10T11:31:48.898Z,58.29
2018-07-10T11:34:17.968Z,58.82
2018-07-10T11:36:47.173Z,58.29
2018-07-10T11:39:16.459Z,58.68
2018-07-10T11:41:51.429Z,58.64
2018-07-10T11:44:20.568Z,59.16
2018-07-10T11:46:50.118Z,59.61
2018-07-10T11:49:19.273Z,60.43
2018-07-10T11:51:48.444Z,60.01
2018-07-10T11:54:18.062Z,60.82
2018-07-10T11:56:47.173Z,60.22
2018-07-10T11:59:16.378Z,60.23
2018-07-10T12:01:45.656Z,60.09
2018-07-10T12:04:14.815Z,60.94
2018-07-10T12:06:49.018Z,65.45
2018-07-10T12:09:18.313Z,71.20
2018-07-10T12:11:47.430Z,73.32
2018-07-10T12:14:16.564Z,76.80
2018-07-10T12:16:46.606Z,76.24
2018-07-10T12:19:16.705Z,76.15
2018-07-10T12:21:45.966Z,75.81
2018-07-10T12:24:15.380Z,75.35
2018-07-10T12:26:44.512Z,76.54
2018-07-10T12:29:13.649Z,78.63
2018-07-10T12:31:42.756Z,78.71
2018-07-10T12:34:11.884Z,80.20
2018-07-10T12:36:41.000Z,80.54
2018-07-10T12:39:10.076Z,80.07
2018-07-10T12:41:39.264Z,78.66
2018-07-10T12:44:08.332Z,76.55
2018-07-10T12:46:37.421Z,76.90
2018-07-10T12:49:06.565Z,76.99
2018-07-10T12:51:35.695Z,76.78
2018-07-10T12:54:05.017Z,75.52
2018-07-10T12:56:34.162Z,72.77
2018-07-10T12:59:03.322Z,71.63
2018-07-10T13:01:32.504Z,70.29
2018-07-10T13:04:01.636Z,67.00
2018-07-10T13:06:30.742Z,63.42
2018-07-10T13:08:59.853Z,63.46
2018-07-10T13:11:29.003Z,64.00
2018-07-10T13:13:58.131Z,64.56
2018-07-10T13:16:27.264Z,63.32
2018-07-10T13:18:56.418Z,64.09
2018-07-10T13:21:25.679Z,63.26
2018-07-10T13:23:54.848Z,60.35
2018-07-10T13:26:24.062Z,60.04
2018-07-10T13:28:53.445Z,60.15
2018-07-10T13:31:22.613Z,60.51
2018-07-10T13:33:51.712Z,60.90
2018-07-10T13:36:21.013Z,62.87
2018-07-10T13:38:50.106Z,64.06
2018-07-10T13:41:19.291Z,64.81
2018-07-10T13:43:48.901Z,64.17
2018-07-10T13:46:18.111Z,64.36
2018-07-10T13:48:47.311Z,63.23
2018-07-10T13:51:16.480Z,61.88
2018-07-10T13:53:45.602Z,61.58
2018-07-10T13:56:14.749Z,60.82
2018-07-10T13:58:43.889Z,60.26
2018-07-10T14:01:13.076Z,59.97
2018-07-10T14:03:42.224Z,59.62
2018-07-10T14:06:11.324Z,59.10
2018-07-10T14:08:40.466Z,58.72
2018-07-10T14:11:09.572Z,57.81
2018-07-10T14:13:38.693Z,56.81
2018-07-10T14:16:07.767Z,57.05
2018-07-10T14:18:37.002Z,59.96
2018-07-10T14:21:07.915Z,59.93
2018-07-10T14:23:37.460Z,59.76
2018-07-10T14:26:06.615Z,60.72
2018-07-10T14:28:35.699Z,61.46
2018-07-10T14:31:04.996Z,63.16
2018-07-10T14:33:34.091Z,63.77
2018-07-10T14:36:03.241Z,64.10
2018-07-10T14:38:32.371Z,64.18
2018-07-10T14:41:04.536Z,64.51
2018-07-10T14:43:35.840Z,64.08
2018-07-10T14:46:07.978Z,63.93
2018-07-10T14:48:45.793Z,63.60
2018-07-10T14:51:18.081Z,64.02
2018-07-10T14:53:47.353Z,63.69
2018-07-10T14:56:16.928Z,63.76
2018-07-10T14:58:46.296Z,64.07
2018-07-10T15:01:15.399Z,63.83
2018-07-10T15:03:44.530Z,64.74
2018-07-10T15:06:13.612Z,65.21
2018-07-10T15:08:42.810Z,64.70
2018-07-10T15:11:11.900Z,64.19
2018-07-10T15:13:52.288Z,64.28
2018-07-10T15:16:21.363Z,65.70
2018-07-10T15:18:51.230Z,66.75
2018-07-10T15:21:21.609Z,67.28
2018-07-10T15:23:50.737Z,68.36
2018-07-10T15:26:19.865Z,68.00
2018-07-10T15:28:48.950Z,67.67
2018-07-10T15:31:18.163Z,67.98
2018-07-10T15:33:47.405Z,67.56
2018-07-10T15:36:16.532Z,68.69
2018-07-10T15:38:46.421Z,69.50
2018-07-10T15:41:16.430Z,71.37
2018-07-10T15:43:45.777Z,74.78
2018-07-10T15:46:14.889Z,80.07
2018-07-10T15:48:44.057Z,82.42
2018-07-10T15:51:13.555Z,86.83
2018-07-10T15:53:42.711Z,86.95
2018-07-10T15:56:11.847Z,88.12
2018-07-10T15:58:41.131Z,85.57
2018-07-10T16:01:10.306Z,84.79
2018-07-10T16:03:39.395Z,84.58
2018-07-10T16:06:08.968Z,82.78
2018-07-10T16:08:39.044Z,82.72
2018-07-10T16:11:08.480Z,81.01
2018-07-10T16:13:40.300Z,80.66
2018-07-10T16:16:11.108Z,80.01
2018-07-10T16:18:44.436Z,78.43
2018-07-10T16:21:13.717Z,78.69
2018-07-10T16:23:42.852Z,77.89
2018-07-10T16:26:17.187Z,79.62
2018-07-10T16:28:46.329Z,78.99
2018-07-10T16:31:17.656Z,79.12
2018-07-10T16:33:47.506Z,80.08
2018-07-10T16:36:17.699Z,80.31
2018-07-10T16:38:46.835Z,80.23
2018-07-10T16:41:22.743Z,80.81
2018-07-10T16:43:52.850Z,84.52
2018-07-10T16:46:23.380Z,86.19
2018-07-10T16:49:03.266Z,85.89
2018-07-10T16:51:48.964Z,86.50
2018-07-10T16:54:18.563Z,87.58
2018-07-10T16:56:47.679Z,85.97
2018-07-10T16:59:16.806Z,85.03
2018-07-10T17:01:45.986Z,85.11
2018-07-10T17:04:15.565Z,83.75
2018-07-10T17:06:45.409Z,83.52
2018-07-10T17:09:14.533Z,83.32
2018-07-10T17:11:43.672Z,83.53
2018-07-10T17:14:12.886Z,83.25
2018-07-10T17:16:42.215Z,83.35
2018-07-10T17:19:11.410Z,82.95
2018-07-10T17:21:40.807Z,83.19
2018-07-10T17:24:10.216Z,82.46
2018-07-10T17:26:40.098Z,81.66
2018-07-10T17:29:11.647Z,82.42
2018-07-10T17:31:40.956Z,81.68
2018-07-10T17:34:12.726Z,81.19
2018-07-10T17:36:42.022Z,80.77
2018-07-10T17:39:11.640Z,80.16
2018-07-10T17:41:41.641Z,78.27
2018-07-10T17:44:11.445Z,77.29
2018-07-10T17:46:40.803Z,74.62
2018-07-10T17:49:10.356Z,76.23
2018-07-10T17:51:39.537Z,74.54
2018-07-10T17:54:09.355Z,74.85
2018-07-10T17:56:38.515Z,72.47
2018-07-10T17:59:08.232Z,71.68
2018-07-10T18:01:38.053Z,70.57
2018-07-10T18:04:07.895Z,69.80
2018-07-10T18:06:37.310Z,68.64
2018-07-10T18:09:07.309Z,69.06
2018-07-10T18:11:36.568Z,68.30
2018-07-10T18:14:08.831Z,67.64
2018-07-10T18:16:38.099Z,66.62
2018-07-10T18:19:07.269Z,65.79
2018-07-10T18:21:36.583Z,65.21
2018-07-10T18:24:05.757Z,65.67
2018-07-10T18:26:34.936Z,65.52
2018-07-10T18:29:04.391Z,65.19
2018-07-10T18:31:33.487Z,65.05
2018-07-10T18:34:02.602Z,64.26
2018-07-10T18:36:31.795Z,60.97
2018-07-10T18:39:01.010Z,63.22
2018-07-10T18:41:30.165Z,61.28
2018-07-10T18:43:59.280Z,57.75
2018-07-10T18:46:28.395Z,51.38
2018-07-10T18:48:57.535Z,51.08
2018-07-10T18:51:27.531Z,49.61
2018-07-10T18:53:56.730Z,48.04
2018-07-10T18:56:25.831Z,48.20
2018-07-10T18:59:04.970Z,47.64
2018-07-10T19:02:08.757Z,46.71
2018-07-10T19:04:46.514Z,47.06
2018-07-10T19:07:15.640Z,47.26
2018-07-10T19:09:44.781Z,47.40
2018-07-10T19:12:15.456Z,47.13
2018-07-10T19:14:45.748Z,47.97
2018-07-10T19:17:20.720Z,47.86
2018-07-10T19:19:53.598Z,49.76
2018-07-10T19:22:26.874Z,49.51
2018-07-10T19:24:56.856Z,49.46
2018-07-10T19:27:31.572Z,49.62
2018-07-10T19:30:04.994Z,49.65
2018-07-10T19:32:34.346Z,49.63
2018-07-10T19:35:04.279Z,49.38
2018-07-10T19:37:35.252Z,49.60
2018-07-10T19:40:04.968Z,50.43
2018-07-10T19:42:35.260Z,49.98
2018-07-10T19:45:05.789Z,49.90
2018-07-10T19:47:35.010Z,51.76
2018-07-10T19:50:16.794Z,50.63
2018-07-10T19:52:52.258Z,50.68
2018-07-10T19:55:22.797Z,50.23
2018-07-10T19:58:16.137Z,50.31
2018-07-10T20:00:48.421Z,49.98
2018-07-10T20:03:36.631Z,50.80
2018-07-10T20:06:11.163Z,51.25
2018-07-10T20:08:45.000Z,51.51
2018-07-10T20:11:18.164Z,52.92
2018-07-10T20:13:48.651Z,52.49
2018-07-10T20:16:51.705Z,52.40
2018-07-10T20:19:44.533Z,50.76
2018-07-10T20:23:23.597Z,50.95
2018-07-10T20:26:06.890Z,51.49
2018-07-10T20:28:42.336Z,50.70
2018-07-10T20:31:53.811Z,50.58
2018-07-10T20:34:28.742Z,50.91
2018-07-10T20:36:57.917Z,50.12
2018-07-10T20:39:34.545Z,49.93
2018-07-10T20:42:04.176Z,49.48
2018-07-10T20:44:51.270Z,50.70
2018-07-10T20:47:20.860Z,51.31
2018-07-10T20:49:56.763Z,51.31
2018-07-10T20:52:32.414Z,51.30
2018-07-10T20:55:06.165Z,51.01
2018-07-10T20:58:09.450Z,51.91
2018-07-10T21:00:40.256Z,52.08
2018-07-10T21:03:16.578Z,52.47
2018-07-10T21:05:49.061Z,52.72
2018-07-10T21:08:30.709Z,52.89
2018-07-10T21:11:06.322Z,53.31
2018-07-10T21:13:46.842Z,53.07
2018-07-10T21:16:20.270Z,53.41
2018-07-10T21:19:02.603Z,53.44
2018-07-10T21:21:44.458Z,53.44
2018-07-10T21:24:56.371Z,53.81
2018-07-10T21:27:48.622Z,53.72
2018-07-10T21:30:26.359Z,53.93
2018-07-10T21:32:59.121Z,53.69
2018-07-10T21:35:35.694Z,53.46
2018-07-10T21:38:15.859Z,54.24
2018-07-10T21:40:54.655Z,53.57
2018-07-10T21:43:30.833Z,53.72
2018-07-10T21:46:07.560Z,53.45
2018-07-10T21:50:49.565Z,53.86
2018-07-10T21:53:19.238Z,54.82
2018-07-10T21:55:51.391Z,54.92
2018-07-10T21:58:21.954Z,54.01
2018-07-10T22:02:02.996Z,54.04
2018-07-10T22:04:35.099Z,54.80
2018-07-10T22:07:06.187Z,54.57
2018-07-10T22:09:37.067Z,54.16
2018-07-10T22:12:09.739Z,54.40
2018-07-10T22:14:38.928Z,55.11
2018-07-10T22:17:13.264Z,55.47
2018-07-10T22:19:44.131Z,55.40
2018-07-10T22:22:17.568Z,55.71
2018-07-10T22:24:47.022Z,56.16
2018-07-10T22:27:16.250Z,56.51
2018-07-10T22:29:51.420Z,56.25
2018-07-10T22:32:25.912Z,56.45
2018-07-10T22:34:55.060Z,56.87
2018-07-10T22:37:24.164Z,57.23
2018-07-10T22:39:53.274Z,56.99
2018-07-10T22:42:22.423Z,57.11
2018-07-10T22:44:53.224Z,57.13
2018-07-10T22:47:40.215Z,57.51
2018-07-10T22:50:13.188Z,58.12
2018-07-10T22:52:47.579Z,57.98
2018-07-10T22:55:20.803Z,58.40
2018-07-10T22:57:51.440Z,58.49
2018-07-10T23:00:38.420Z,58.32
2018-07-10T23:03:18.489Z,58.90
2018-07-10T23:05:49.129Z,59.26
2018-07-10T23:08:20.090Z,59.37
2018-07-10T23:10:49.621Z,59.57
2018-07-10T23:13:19.369Z,59.96
2018-07-10T23:15:49.320Z,60.14
2018-07-10T23:18:18.997Z,59.91
2018-07-10T23:20:48.163Z,59.98
2018-07-10T23:23:17.626Z,60.31
2018-07-10T23:25:46.709Z,60.28
2018-07-10T23:28:15.880Z,60.21
2018-07-10T23:30:45.309Z,60.67
2018-07-10T23:33:18.617Z,60.49
2018-07-10T23:35:50.104Z,61.15
2018-07-10T23:38:53.583Z,61.37
2018-07-10T23:41:30.919Z,61.37
2018-07-10T23:44:00.572Z,61.53
2018-07-10T23:46:34.364Z,61.52
2018-07-10T23:49:09.868Z,62.15
2018-07-10T23:51:50.751Z,61.77
2018-07-10T23:54:20.575Z,62.20
2018-07-10T23:56:49.663Z,62.32
2018-07-10T23:59:18.799Z,62.75
